Time;durP1;ratioP1;P1;durP2;ratioP2;P2;SDS_P1;SDS_P2;PMS_P1;PMS_P2;Temp;Humidity;BMP_temperature;BMP_pressure;BME280_temperature;BME280_humidity;BME280_pressure;Samples;Min_cycle;Max_cycle;Signal;HPM_P1;HPM_P2
2023/03/06 05:12:28;;;;;;;12.35;5.37;;;;;;;1.98;81.60;99621.94;4744616;31;27890520;-86
2023/03/06 05:15:31;;;;;;;12.13;5.65;;;;;;;1.96;83.16;99631.59;5594291;32;33910;-86
2023/03/06 05:18:35;;;;;;;9.90;5.15;;;;;;;2.01;82.80;99625.34;5589658;31;34756;-86
2023/03/06 05:21:38;;;;;;;10.50;6.07;;;;;;;2.10;82.18;99626.84;5594870;31;34050;-86
2023/03/06 05:24:41;;;;;;;10.65;6.10;;;;;;;2.02;84.03;99632.28;5590689;32;33497;-86
2023/03/06 05:27:43;;;;;;;11.30;5.95;;;;;;;2.01;85.51;99627.13;5588702;32;34205;-86
2023/03/06 05:30:46;;;;;;;12.15;6.53;;;;;;;1.97;85.22;99635.94;5588029;31;33945;-86
2023/03/06 05:33:49;;;;;;;11.02;5.80;;;;;;;1.98;85.18;99632.41;5588227;31;34132;-86
2023/03/06 05:36:52;;;;;;;11.35;6.25;;;;;;;1.97;87.20;99636.78;5587468;32;33852;-86
2023/03/06 05:39:55;;;;;;;10.52;5.97;;;;;;;1.97;86.87;99641.16;5587500;32;33869;-86
2023/03/06 05:42:58;;;;;;;10.93;6.75;;;;;;;2.04;87.98;99637.47;5587159;32;34072;-87
2023/03/06 05:46:05;;;;;;;9.70;5.82;;;;;;;1.89;88.86;99630.91;5589025;31;33961;-86
2023/03/06 05:49:08;;;;;;;12.23;6.12;;;;;;;2.01;90.22;99633.19;5593265;31;35758;-86
2023/03/06 05:52:12;;;;;;;12.63;6.30;;;;;;;1.92;90.25;99637.81;5592361;32;33733;-86
2023/03/06 05:55:15;;;;;;;11.63;6.65;;;;;;;1.80;93.61;99637.22;5588035;31;33977;-86
2023/03/06 05:58:21;;;;;;;13.50;6.80;;;;;;;1.96;93.93;99635.06;5591409;32;34350;-86
2023/03/06 06:01:27;;;;;;;10.82;5.93;;;;;;;1.85;94.05;99637.09;5588643;32;34014;-86
2023/03/06 06:04:30;;;;;;;12.32;6.70;;;;;;;1.86;94.27;99644.06;5592753;31;33808;-86
2023/03/06 06:07:33;;;;;;;12.20;6.15;;;;;;;1.82;95.14;99639.81;5595292;31;34108;-86
2023/03/06 06:10:37;;;;;;;11.55;6.37;;;;;;;1.93;95.30;99635.16;5596346;31;33710;-86
2023/03/06 06:13:40;;;;;;;9.95;6.70;;;;;;;2.12;95.28;99642.53;5599044;31;33530;-86
2023/03/06 06:16:43;;;;;;;11.75;6.87;;;;;;;1.91;96.24;99651.78;5608259;31;35195;-86
2023/03/06 06:19:46;;;;;;;10.77;6.35;;;;;;;1.95;97.19;99651.66;5608810;31;35152;-90
2023/03/06 06:22:49;;;;;;;12.32;7.03;;;;;;;1.97;97.21;99647.25;5574887;31;33650;-90
2023/03/06 06:25:51;;;;;;;13.10;6.78;;;;;;;1.97;97.98;99652.47;5584570;31;33908;-87
2023/03/06 06:28:54;;;;;;;12.20;6.80;;;;;;;1.95;98.68;99654.28;5578958;31;35300;-86
2023/03/06 06:31:58;;;;;;;13.75;6.95;;;;;;;1.93;100.00;99656.09;5575354;32;33755;-87
2023/03/06 06:35:01;;;;;;;11.63;6.93;;;;;;;2.05;99.33;99652.28;5583022;32;34168;-86
2023/03/06 06:38:04;;;;;;;12.07;6.72;;;;;;;1.97;99.07;99654.25;5588362;31;35173;-86
2023/03/06 06:41:07;;;;;;;11.95;6.93;;;;;;;1.92;99.25;99658.72;5583678;31;33919;-86
2023/03/06 06:44:29;;;;;;;9.63;6.62;;;;;;;2.23;98.81;99663.16;5575700;31;34430;-86
2023/03/06 06:47:33;;;;;;;10.82;7.03;;;;;;;2.24;98.84;99663.13;5582803;31;34035;-86
2023/03/06 06:50:37;;;;;;;12.00;7.20;;;;;;;2.23;98.71;99656.19;5590084;31;35239;-87
2023/03/06 06:53:39;;;;;;;13.50;7.57;;;;;;;2.15;100.00;99653.75;5580855;31;35247;-86
2023/03/06 06:56:42;;;;;;;16.00;8.35;;;;;;;2.45;99.10;99649.50;5564035;31;35038;-87
2023/03/06 06:59:45;;;;;;;13.98;7.97;;;;;;;2.27;99.95;99657.78;5568594;31;34120;-87
2023/03/06 07:02:50;;;;;;;14.50;8.30;;;;;;;2.14;100.00;99653.78;5566677;31;34089;-88
2023/03/06 07:05:54;;;;;;;12.40;7.75;;;;;;;2.06;100.00;99648.75;5572498;31;34433;-87
2023/03/06 07:08:57;;;;;;;12.85;7.40;;;;;;;2.05;100.00;99651.44;5591001;31;34507;-88
2023/03/06 07:12:07;;;;;;;16.02;7.90;;;;;;;2.10;100.00;99652.16;5591643;31;34029;-87
2023/03/06 07:15:12;;;;;;;16.17;7.82;;;;;;;2.19;100.00;99662.38;5594139;31;34065;-88
2023/03/06 07:18:16;;;;;;;14.80;7.90;;;;;;;2.30;99.02;99667.31;5567061;32;35150;-88
2023/03/06 07:21:19;;;;;;;16.73;8.43;;;;;;;2.34;99.35;99670.72;5594652;31;35441;-88
2023/03/06 07:24:22;;;;;;;13.25;7.70;;;;;;;2.45;98.83;99675.69;5598695;31;34180;-87
2023/03/06 07:27:26;;;;;;;13.38;8.27;;;;;;;2.59;99.23;99673.53;5581296;31;35811;-87
2023/03/06 07:30:32;;;;;;;15.23;8.70;;;;;;;2.70;97.65;99675.84;5562138;32;34121;-87
2023/03/06 07:33:34;;;;;;;16.77;9.15;;;;;;;2.64;98.71;99674.25;5579048;31;33953;-88
2023/03/06 07:36:39;;;;;;;15.57;8.32;;;;;;;2.78;98.91;99673.00;5556998;31;34633;-88
2023/03/06 07:39:41;;;;;;;15.05;8.65;;;;;;;2.74;100.00;99668.75;5584564;31;34354;-88
2023/03/06 07:42:45;;;;;;;17.02;8.98;;;;;;;2.68;100.00;99665.41;5568161;32;34540;-87
2023/03/06 07:45:55;;;;;;;14.40;7.55;;;;;;;2.68;100.00;99680.28;5572574;31;33939;-89
2023/03/06 07:48:58;;;;;;;15.73;9.00;;;;;;;2.84;100.00;99672.84;5614472;26;33675;-86
2023/03/06 07:52:01;;;;;;;13.55;8.60;;;;;;;2.94;100.00;99673.41;5557789;32;33557;-85
2023/03/06 07:55:04;;;;;;;15.88;8.73;;;;;;;3.00;100.00;99680.22;5559878;31;33877;-84
2023/03/06 07:58:07;;;;;;;14.10;7.82;;;;;;;3.17;96.45;99680.59;5554026;32;34002;-85
2023/03/06 08:01:13;;;;;;;14.15;8.82;;;;;;;3.08;96.44;99681.72;5551194;32;33943;-84
2023/03/06 08:04:16;;;;;;;20.23;9.65;;;;;;;3.09;94.86;99688.69;5551462;32;33856;-85
2023/03/06 08:07:19;;;;;;;23.77;10.00;;;;;;;3.27;94.76;99685.56;5552924;32;34741;-85
2023/03/06 08:10:22;;;;;;;23.98;10.38;;;;;;;3.03;97.76;99695.87;5554207;32;33572;-89
2023/03/06 08:13:24;;;;;;;17.83;9.40;;;;;;;2.96;99.62;99693.44;5554862;32;35289;-89
2023/03/06 08:16:29;;;;;;;17.62;8.75;;;;;;;3.20;97.19;99687.50;5561081;31;34580;-89
2023/03/06 08:19:32;;;;;;;14.18;8.73;;;;;;;3.18;96.57;99686.69;5565477;31;33860;-87
2023/03/06 08:22:35;;;;;;;15.55;8.75;;;;;;;3.05;97.91;99692.31;5559485;32;34042;-86
2023/03/06 08:25:38;;;;;;;19.00;8.20;;;;;;;2.95;99.22;99677.75;5561389;32;34713;-85
2023/03/06 08:28:41;;;;;;;14.98;8.77;;;;;;;2.98;100.00;99685.53;5568952;32;33994;-85
2023/03/06 08:31:46;;;;;;;20.20;9.23;;;;;;;2.92;99.68;99691.78;5560027;32;34284;-85
2023/03/06 08:34:49;;;;;;;15.15;9.05;;;;;;;3.03;100.00;99686.25;5565217;32;33805;-86
2023/03/06 08:37:52;;;;;;;16.00;8.32;;;;;;;3.42;97.36;99692.09;5571761;32;34928;-86
2023/03/06 08:40:55;;;;;;;14.40;8.20;;;;;;;3.52;96.67;99690.03;5574185;32;33784;-86
2023/03/06 08:43:58;;;;;;;16.75;8.57;;;;;;;3.75;93.40;99690.16;5558418;32;34398;-86
2023/03/06 08:47:01;;;;;;;14.63;8.60;;;;;;;3.71;94.42;99691.16;5572069;31;33575;-85
2023/03/06 08:50:04;;;;;;;19.23;9.02;;;;;;;3.73;96.19;99685.88;5563132;32;35160;-84
2023/03/06 08:53:07;;;;;;;17.67;8.63;;;;;;;3.95;98.84;99688.66;5557061;32;35239;-86
2023/03/06 08:56:18;;;;;;;16.33;9.38;;;;;;;3.95;95.40;99686.03;5554364;32;34023;-86
2023/03/06 08:59:21;;;;;;;17.30;8.75;;;;;;;4.28;94.02;99685.78;5563632;32;33900;-86
2023/03/06 09:02:23;;;;;;;15.65;9.20;;;;;;;4.44;91.75;99680.00;5562270;31;34334;-86
2023/03/06 09:05:27;;;;;;;20.35;10.55;;;;;;;4.38;93.80;99682.84;5570965;32;33497;-86
2023/03/06 09:08:31;;;;;;;18.00;9.98;;;;;;;4.35;94.21;99677.69;5554316;32;33824;-83
2023/03/06 09:11:34;;;;;;;21.12;10.90;;;;;;;4.38;92.58;99673.16;5555291;32;34332;-85
2023/03/06 09:14:37;;;;;;;18.33;10.15;;;;;;;4.35;93.46;99665.41;5547571;32;33905;-85
2023/03/06 09:17:40;;;;;;;16.80;9.73;;;;;;;4.27;91.04;99660.44;5561387;32;34978;-84
2023/03/06 09:20:42;;;;;;;17.30;9.93;;;;;;;4.79;88.83;99658.59;5563827;32;34132;-85
2023/03/06 09:23:45;;;;;;;20.37;10.65;;;;;;;5.48;84.65;99667.38;5564293;32;35314;-85
2023/03/06 09:26:48;;;;;;;18.45;10.55;;;;;;;5.37;84.36;99671.28;5555768;32;34746;-85
2023/03/06 09:29:54;;;;;;;18.35;10.18;;;;;;;5.21;83.80;99657.87;5564656;32;34267;-85
2023/03/06 09:32:57;;;;;;;22.30;10.43;;;;;;;5.18;85.45;99657.16;5551462;32;34743;-85
2023/03/06 09:36:01;;;;;;;17.25;9.55;;;;;;;5.24;84.69;99647.22;5550810;32;33975;-85
2023/03/06 09:39:04;;;;;;;17.27;9.90;;;;;;;5.76;76.24;99653.09;5553437;32;34126;-85
2023/03/06 09:42:13;;;;;;;19.67;9.85;;;;;;;6.24;76.93;99644.97;5555331;32;34576;-84
2023/03/06 09:45:19;;;;;;;17.67;10.68;;;;;;;6.44;74.43;99641.47;5554569;32;33932;-84
2023/03/06 09:48:40;;;;;;;16.52;10.02;;;;;;;6.63;72.32;99643.28;5557032;31;34592;-85
2023/03/06 09:52:27;;;;;;;16.80;9.68;;;;;;;6.60;72.68;99641.66;5551509;32;33838;-87
2023/03/06 09:55:39;;;;;;;17.73;10.30;;;;;;;6.74;72.75;99627.84;5539406;31;33902;-87
2023/03/06 09:58:50;;;;;;;20.20;9.77;;;;;;;6.34;73.83;99635.78;5564836;32;33797;-87
2023/03/06 10:01:57;;;;;;;17.35;9.82;;;;;;;6.58;71.54;99631.16;5564780;32;34488;-87
2023/03/06 10:05:05;;;;;;;18.20;9.63;;;;;;;7.53;68.63;99624.12;5555056;32;34685;-85
2023/03/06 10:08:22;;;;;;;16.87;9.70;;;;;;;7.91;66.84;99641.59;5567871;31;33799;-87
2023/03/06 10:11:41;;;;;;;15.82;9.25;;;;;;;6.97;66.83;99636.47;5565208;31;33517;-87
2023/03/06 10:14:51;;;;;;;15.60;9.23;;;;;;;6.72;69.26;99632.31;5560384;32;34656;-88
2023/03/06 10:17:55;;;;;;;17.75;9.68;;;;;;;6.69;68.66;99633.31;5566576;31;33681;-87
2023/03/06 10:21:02;;;;;;;17.05;8.75;;;;;;;6.44;70.44;99630.94;5570792;31;34287;-86
2023/03/06 10:24:45;;;;;;;15.88;9.43;;;;;;;6.97;73.98;99632.06;5567718;31;34622;-86
2023/03/06 10:27:54;;;;;;;18.83;10.15;;;;;;;7.52;68.58;99629.47;5562771;32;34124;-85
2023/03/06 10:31:08;;;;;;;20.40;10.52;;;;;;;7.74;66.92;99631.06;5558905;32;33689;-86
2023/03/06 10:34:13;;;;;;;18.85;9.73;;;;;;;7.43;67.24;99630.78;5560260;32;33732;-86
2023/03/06 10:37:21;;;;;;;18.70;10.10;;;;;;;6.64;69.32;99618.66;5562389;32;33789;-86
2023/03/06 10:40:34;;;;;;;19.02;10.80;;;;;;;6.58;73.32;99625.91;5557775;32;34144;-87
2023/03/06 10:43:42;;;;;;;19.12;10.43;;;;;;;6.25;72.97;99605.41;5553042;32;34556;-86
2023/03/06 10:46:48;;;;;;;19.12;11.25;;;;;;;6.48;72.45;99603.50;5573086;32;35296;-86
2023/03/06 10:49:59;;;;;;;26.25;12.18;;;;;;;6.34;71.40;99598.88;5569074;31;34024;-86
2023/03/06 10:53:05;;;;;;;18.60;10.32;;;;;;;6.29;73.02;99593.81;5556668;32;33786;-85
2023/03/06 10:56:08;;;;;;;18.35;10.65;;;;;;;6.28;72.91;99583.34;5539066;32;33975;-86
2023/03/06 10:59:17;;;;;;;17.33;10.70;;;;;;;5.87;73.79;99578.91;5564921;32;34338;-86
2023/03/06 11:02:28;;;;;;;21.87;11.07;;;;;;;5.87;75.43;99571.91;5559828;32;33882;-86
2023/03/06 11:05:31;;;;;;;16.85;10.55;;;;;;;5.89;75.29;99563.94;5567854;32;34098;-86
2023/03/06 11:08:35;;;;;;;20.60;10.90;;;;;;;5.88;75.30;99563.06;5569846;31;33997;-86
2023/03/06 11:11:38;;;;;;;19.58;10.73;;;;;;;5.97;73.52;99563.59;5574319;32;34327;-86
2023/03/06 11:14:41;;;;;;;21.48;11.18;;;;;;;5.79;75.13;99553.78;5561073;32;34358;-86
2023/03/06 11:18:03;;;;;;;21.70;11.85;;;;;;;5.57;74.39;99548.59;5557156;32;36455;-85
2023/03/06 11:21:29;;;;;;;19.92;11.45;;;;;;;5.52;75.22;99540.91;5554203;32;34802;-86
2023/03/06 11:24:38;;;;;;;20.35;11.73;;;;;;;5.22;76.87;99530.75;5554085;32;34602;-85
2023/03/06 11:27:45;;;;;;;18.27;10.57;;;;;;;4.84;79.39;99523.47;5560531;32;34134;-89
2023/03/06 11:30:53;;;;;;;21.83;12.05;;;;;;;5.01;79.03;99521.09;5580226;32;34796;-89
2023/03/06 11:34:27;;;;;;;20.02;11.40;;;;;;;5.03;78.75;99519.28;5577704;32;34147;-86
2023/03/06 11:37:45;;;;;;;21.37;11.65;;;;;;;5.24;77.09;99507.03;5569078;32;35317;-86
2023/03/06 11:40:53;;;;;;;21.45;11.50;;;;;;;5.44;76.75;99500.06;5564238;32;34085;-86
2023/03/06 11:44:10;;;;;;;21.08;11.15;;;;;;;6.37;75.73;99490.72;5555692;32;35179;-86
2023/03/06 11:47:18;;;;;;;19.52;10.75;;;;;;;5.71;74.53;99476.09;5553792;32;34858;-87
2023/03/06 11:50:32;;;;;;;22.27;11.95;;;;;;;5.68;76.72;99468.34;5556077;32;33872;-87
2023/03/06 11:53:38;;;;;;;20.92;11.05;;;;;;;5.86;76.21;99467.53;5557986;32;33983;-86
2023/03/06 11:57:10;;;;;;;28.15;12.63;;;;;;;5.53;75.32;99461.06;5563321;32;34616;-87
2023/03/06 12:00:28;;;;;;;20.88;12.10;;;;;;;5.46;75.42;99462.25;5545969;32;34722;-88
2023/03/06 12:03:57;;;;;;;25.10;12.40;;;;;;;5.53;76.58;99453.16;5554436;31;34353;-90
2023/03/06 12:07:20;;;;;;;23.67;11.70;;;;;;;5.30;77.82;99435.75;5562393;32;33725;-88
2023/03/06 12:10:40;;;;;;;21.55;12.45;;;;;;;5.47;77.83;99427.13;5569108;31;34883;-87
2023/03/06 12:13:57;;;;;;;21.12;12.18;;;;;;;5.82;nan;99423.84;5557504;32;34774;-85
2023/03/06 12:17:23;;;;;;;27.05;11.70;;;;;;;5.83;75.40;99420.28;5558310;31;33902;-88
2023/03/06 12:20:45;;;;;;;24.05;12.65;;;;;;;5.63;74.36;99415.94;5566097;31;35177;-85
2023/03/06 12:24:02;;;;;;;21.70;11.60;;;;;;;5.62;74.82;99417.69;5558600;32;33613;-86
2023/03/06 12:27:26;;;;;;;22.65;11.75;;;;;;;5.54;75.98;99419.84;5561592;32;34128;-85
2023/03/06 12:31:08;;;;;;;22.60;12.00;;;;;;;5.77;74.39;99412.66;5561260;32;34760;-90
2023/03/06 12:34:35;;;;;;;21.23;11.63;;;;;;;5.70;75.82;99413.87;5549932;31;34816;-86
2023/03/06 12:38:06;;;;;;;20.55;12.18;;;;;;;5.80;76.07;99418.62;5555119;32;34543;-86
2023/03/06 12:41:43;;;;;;;22.87;12.37;;;;;;;5.43;80.20;99412.38;5557914;32;34486;-86
2023/03/06 12:45:01;;;;;;;23.10;12.55;;;;;;;5.29;82.37;99409.50;5566549;32;34172;-86
2023/03/06 12:48:17;;;;;;;22.35;12.93;;;;;;;5.31;83.07;99408.53;5559490;32;35106;-86
2023/03/06 12:51:20;;;;;;;22.05;12.13;;;;;;;5.52;81.76;99405.87;5569513;32;34009;-89
2023/03/06 12:54:27;;;;;;;22.73;12.25;;;;;;;5.57;82.07;99409.16;5570856;32;35216;-89
2023/03/06 12:57:30;;;;;;;24.23;13.43;;;;;;;5.51;83.36;99406.78;5572184;31;34450;-89
2023/03/06 13:00:33;;;;;;;26.33;13.88;;;;;;;5.37;84.88;99397.75;5571571;32;33630;-87
2023/03/06 13:03:51;;;;;;;26.83;14.40;;;;;;;5.30;86.09;99401.56;5570432;31;35253;-87
2023/03/06 13:06:56;;;;;;;23.48;13.10;;;;;;;5.35;85.91;99389.06;5562676;31;34499;-85
2023/03/06 13:10:15;;;;;;;25.40;14.00;;;;;;;5.27;86.08;99396.44;5562493;32;34545;-86
2023/03/06 13:13:28;;;;;;;24.80;14.40;;;;;;;5.15;86.55;99394.31;5563645;31;33995;-85
2023/03/06 13:16:33;;;;;;;23.70;13.60;;;;;;;5.30;85.71;99388.41;5566237;31;34297;-86
2023/03/06 13:19:36;;;;;;;23.52;13.65;;;;;;;5.48;85.16;99385.91;5565126;32;34152;-86
2023/03/06 13:22:41;;;;;;;23.27;13.25;;;;;;;5.15;87.50;99381.19;5555416;32;34181;-86
2023/03/06 13:25:47;;;;;;;25.35;12.98;;;;;;;5.56;85.54;99381.13;5565073;32;33937;-86
2023/03/06 13:28:53;;;;;;;25.23;13.20;;;;;;;5.42;86.76;99379.12;5559544;32;33998;-86
2023/03/06 13:31:59;;;;;;;26.05;14.57;;;;;;;5.42;87.24;99375.66;5552746;32;34005;-85
2023/03/06 13:35:44;;;;;;;24.35;13.35;;;;;;;5.38;87.53;99367.06;5555345;32;34277;-86
2023/03/06 13:38:47;;;;;;;24.58;13.75;;;;;;;5.49;87.11;99363.94;5555697;32;34347;-86
2023/03/06 13:41:57;;;;;;;27.17;14.60;;;;;;;5.24;88.96;99359.75;5559834;31;33731;-86
2023/03/06 13:45:22;;;;;;;25.10;13.48;;;;;;;5.17;89.87;99361.78;5563278;32;34321;-90
2023/03/06 13:48:31;;;;;;;26.08;14.60;;;;;;;5.32;89.85;99359.44;5574078;31;35172;-87
2023/03/06 13:51:51;;;;;;;28.25;14.40;;;;;;;5.36;89.05;99351.34;5556340;32;33604;-87
2023/03/06 13:55:02;;;;;;;24.52;13.98;;;;;;;5.62;87.81;99356.31;5553628;32;34584;-86
2023/03/06 13:58:55;;;;;;;26.20;14.43;;;;;;;5.60;87.31;99348.53;5558621;32;34701;-85
2023/03/06 14:02:23;;;;;;;25.92;14.82;;;;;;;5.60;87.24;99342.38;5539477;32;34189;-85
2023/03/06 14:05:48;;;;;;;29.05;15.52;;;;;;;5.43;88.20;99337.91;5558234;32;33736;-85
2023/03/06 14:08:51;;;;;;;25.35;14.15;;;;;;;5.38;88.21;99340.75;5556640;32;34080;-84
2023/03/06 14:12:17;;;;;;;27.08;14.35;;;;;;;5.23;90.22;99331.78;5567015;32;33661;-84
2023/03/06 14:15:38;;;;;;;26.48;13.98;;;;;;;5.35;89.23;99338.25;5549432;32;34105;-85
2023/03/06 14:18:47;;;;;;;25.65;13.80;;;;;;;5.24;89.88;99328.22;5556989;32;34078;-84
2023/03/06 14:21:56;;;;;;;26.08;14.00;;;;;;;5.21;90.40;99329.19;5557346;32;34161;-84
2023/03/06 14:25:04;;;;;;;28.40;14.10;;;;;;;5.09;90.67;99335.00;5561503;32;33935;-87
2023/03/06 14:28:29;;;;;;;24.23;13.32;;;;;;;5.47;88.40;99327.16;5575301;32;34048;-87
2023/03/06 14:31:39;;;;;;;25.08;12.80;;;;;;;5.10;90.78;99329.69;5576108;32;34020;-87
2023/03/06 14:34:45;;;;;;;24.12;13.30;;;;;;;4.92;92.54;99322.59;5574261;32;34673;-87
2023/03/06 14:37:52;;;;;;;23.15;12.07;;;;;;;4.93;92.32;99332.19;5574395;32;33540;-87
2023/03/06 14:40:55;;;;;;;23.75;13.35;;;;;;;4.99;92.25;99332.75;5573927;32;34101;-87
2023/03/06 14:44:18;;;;;;;24.77;13.88;;;;;;;4.78;93.71;99324.03;5584740;31;34980;-87
2023/03/06 14:47:25;;;;;;;29.23;14.18;;;;;;;4.55;95.59;99325.88;5581522;31;34321;-85
2023/03/06 14:50:32;;;;;;;28.65;14.07;;;;;;;4.49;95.94;99320.00;5583119;32;33689;-87
2023/03/06 14:53:34;;;;;;;25.23;13.68;;;;;;;4.58;96.29;99320.47;5586029;31;34836;-87
2023/03/06 14:56:44;;;;;;;25.80;14.02;;;;;;;4.63;95.68;99312.38;5581352;32;35221;-86
2023/03/06 14:59:55;;;;;;;27.00;13.93;;;;;;;4.57;95.52;99313.50;5574737;32;33950;-86
2023/03/06 15:02:58;;;;;;;25.50;13.43;;;;;;;4.42;96.04;99308.88;5574713;32;34718;-90
2023/03/06 15:06:03;;;;;;;28.20;14.27;;;;;;;4.56;95.68;99313.56;5564455;32;34270;-91
2023/03/06 15:09:15;;;;;;;26.52;13.75;;;;;;;4.55;95.29;99311.88;5560292;32;33661;-88
2023/03/06 15:12:18;;;;;;;27.45;14.13;;;;;;;4.70;94.75;99308.59;5555523;32;34039;-87
2023/03/06 15:15:28;;;;;;;28.48;13.90;;;;;;;4.45;96.63;99311.41;5559277;32;33786;-84
2023/03/06 15:18:37;;;;;;;25.73;13.65;;;;;;;4.63;96.55;99306.28;5563416;32;33975;-86
2023/03/06 15:21:46;;;;;;;26.40;13.13;;;;;;;4.39;98.12;99303.78;5564982;32;34747;-85
2023/03/06 15:24:49;;;;;;;29.08;14.10;;;;;;;4.32;97.71;99308.41;5566839;32;34999;-85
2023/03/06 15:28:00;;;;;;;23.83;12.95;;;;;;;4.21;98.32;99295.72;5558821;32;34883;-86
2023/03/06 15:31:09;;;;;;;25.52;13.20;;;;;;;4.26;98.13;99300.78;5564766;32;33956;-85
2023/03/06 15:34:16;;;;;;;29.30;13.43;;;;;;;4.24;98.66;99298.25;5576945;32;34227;-85
2023/03/06 15:37:26;;;;;;;25.33;13.73;;;;;;;4.16;99.57;99289.81;5560731;32;34672;-85
2023/03/06 15:40:30;;;;;;;27.73;14.15;;;;;;;4.29;98.52;99291.00;5555728;32;34136;-85
2023/03/06 15:43:39;;;;;;;20.75;12.52;;;;;;;4.04;99.86;99289.38;5557899;32;33846;-85
2023/03/06 15:46:42;;;;;;;26.37;13.57;;;;;;;4.09;99.52;99289.22;5568159;31;33593;-85
2023/03/06 15:49:45;;;;;;;23.35;12.60;;;;;;;3.99;100.00;99291.38;5567489;32;34581;-85
2023/03/06 15:52:49;;;;;;;23.65;12.88;;;;;;;3.96;100.00;99291.47;5582092;32;34729;-85
2023/03/06 15:55:54;;;;;;;27.02;12.68;;;;;;;3.93;100.00;99304.72;5572229;32;34609;-85
2023/03/06 15:58:58;;;;;;;23.15;12.35;;;;;;;3.80;100.00;99312.22;5573302;32;33992;-85
2023/03/06 16:02:09;;;;;;;21.50;12.07;;;;;;;3.78;100.00;99309.63;5573513;32;34149;-85
2023/03/06 16:05:16;;;;;;;25.75;12.77;;;;;;;3.74;100.00;99304.59;5559278;32;33170;-85
2023/03/06 16:08:18;;;;;;;23.00;12.70;;;;;;;3.61;100.00;99305.06;5574655;32;33900;-85
2023/03/06 16:11:28;;;;;;;23.20;13.07;;;;;;;3.56;100.00;99303.53;5575260;32;34285;-85
2023/03/06 16:14:46;;;;;;;21.75;12.82;;;;;;;3.55;100.00;99313.16;5570812;32;35246;-89
2023/03/06 16:17:49;;;;;;;22.98;12.65;;;;;;;3.54;100.00;99313.22;5554993;32;34111;-86
2023/03/06 16:20:51;;;;;;;25.37;13.45;;;;;;;3.47;100.00;99310.81;5553498;32;34812;-85
2023/03/06 16:23:54;;;;;;;23.83;12.70;;;;;;;3.36;100.00;99316.47;5553164;32;34792;-86
2023/03/06 16:27:00;;;;;;;25.05;12.18;;;;;;;3.36;100.00;99320.84;5553309;32;33763;-86
2023/03/06 16:30:04;;;;;;;23.02;12.63;;;;;;;3.42;100.00;99323.25;5551870;32;34532;-85
2023/03/06 16:33:10;;;;;;;22.65;12.65;;;;;;;3.42;100.00;99323.25;5553446;32;34604;-85
2023/03/06 16:36:18;;;;;;;22.33;11.52;;;;;;;3.34;100.00;99323.53;5552214;32;34289;-85
2023/03/06 16:39:23;;;;;;;22.60;12.25;;;;;;;3.35;100.00;99325.25;5552865;32;34434;-85
